Time;durP1;ratioP1;P1;durP2;ratioP2;P2;SDS_P1;SDS_P2;PMS_P1;PMS_P2;Temp;Humidity;BMP_temperature;BMP_pressure;BME280_temperature;BME280_humidity;BME280_pressure;Samples;Min_cycle;Max_cycle;Signal;HPM_P1;HPM_P2
2023/08/31 00:01:08;;;;;;;3.75;1.60;;;;;;;-142.75;100.00;76003.41;5026624;28;20029;-62
2023/08/31 00:03:38;;;;;;;2.85;1.10;;;;;;;-142.75;100.00;76001.44;5026681;28;20028;-63
2023/08/31 00:06:04;;;;;;;3.47;0.80;;;;;;;-142.75;100.00;76007.34;5031013;28;20112;-62
2023/08/31 00:08:30;;;;;;;4.40;1.00;;;;;;;-142.75;100.00;75995.53;5028617;28;20053;-62
2023/08/31 00:11:00;;;;;;;2.53;1.10;;;;;;;-142.75;100.00;75993.56;5026406;28;20039;-63
2023/08/31 00:13:26;;;;;;;4.95;1.02;;;;;;;-142.75;100.00;75985.69;5025757;28;20107;-63
2023/08/31 00:15:56;;;;;;;3.88;1.00;;;;;;;-142.75;100.00;75969.94;5026160;28;20086;-62
2023/08/31 00:18:21;;;;;;;3.13;1.08;;;;;;;-142.75;100.00;75975.84;5026268;28;20505;-63
2023/08/31 00:20:47;;;;;;;6.30;1.10;;;;;;;-142.75;100.00;75979.78;5026389;28;20064;-62
2023/08/31 00:23:12;;;;;;;5.03;1.20;;;;;;;-142.75;100.00;75981.75;5026225;28;20045;-63
2023/08/31 00:25:38;;;;;;;3.42;1.23;;;;;;;-142.75;100.00;75967.97;5025714;28;20030;-62
2023/08/31 00:28:04;;;;;;;8.98;1.60;;;;;;;-142.75;100.00;75964.03;5026497;28;20381;-63
2023/08/31 00:30:30;;;;;;;6.72;1.58;;;;;;;-142.75;100.00;75960.13;5026313;28;20104;-62
2023/08/31 00:32:59;;;;;;;3.58;1.02;;;;;;;-142.75;100.00;75940.44;5026286;28;20492;-63
2023/08/31 00:35:27;;;;;;;7.18;1.42;;;;;;;-142.75;100.00;75940.44;5025195;28;20033;-62
2023/08/31 00:37:55;;;;;;;3.67;0.90;;;;;;;-142.75;100.00;75950.28;5024896;28;20503;-62
2023/08/31 00:40:20;;;;;;;4.22;1.70;;;;;;;-142.75;100.00;75930.59;5026170;28;20033;-63
2023/08/31 00:42:46;;;;;;;4.63;1.30;;;;;;;-142.75;100.00;75934.53;5026376;28;20143;-63
2023/08/31 00:45:11;;;;;;;6.05;1.25;;;;;;;-142.75;100.00;75936.50;5035299;28;20106;-63
2023/08/31 00:47:37;;;;;;;3.17;1.00;;;;;;;-142.75;100.00;75952.25;5029980;28;20160;-63
2023/08/31 00:50:03;;;;;;;2.65;0.88;;;;;;;-142.75;100.00;75938.47;5030085;28;20033;-62
2023/08/31 00:52:28;;;;;;;3.17;0.98;;;;;;;-142.75;100.00;75960.13;5030194;28;20029;-62
2023/08/31 00:54:54;;;;;;;2.30;0.77;;;;;;;-142.75;100.00;75954.22;5029972;28;20048;-62
2023/08/31 00:57:19;;;;;;;2.60;0.80;;;;;;;-142.75;100.00;75964.03;5029604;28;20028;-62
2023/08/31 00:59:45;;;;;;;3.35;0.90;;;;;;;-142.75;100.00;75964.03;5030162;28;20021;-62
2023/08/31 01:02:53;;;;;;;4.10;1.08;;;;;;;-142.75;100.00;75964.03;5029831;28;20104;-62
2023/08/31 01:05:41;;;;;;;4.20;0.80;;;;;;;-142.75;100.00;75964.03;5006472;28;20038;-63
2023/08/31 01:08:33;;;;;;;6.07;1.17;;;;;;;-142.75;100.00;75962.09;5027535;28;20052;-62
2023/08/31 01:11:13;;;;;;;5.32;1.42;;;;;;;-142.75;100.00;75964.03;5028770;28;20029;-62
2023/08/31 01:13:44;;;;;;;2.97;0.90;;;;;;;-142.75;100.00;75977.81;5028649;28;20025;-62
2023/08/31 01:16:11;;;;;;;3.15;0.98;;;;;;;-142.75;100.00;75979.78;5029420;28;20053;-62
2023/08/31 01:18:39;;;;;;;4.10;0.98;;;;;;;-142.75;100.00;75983.72;5029784;28;20052;-61
2023/08/31 01:21:20;;;;;;;2.78;0.93;;;;;;;-142.75;100.00;75975.84;5029487;28;20036;-62
2023/08/31 01:23:55;;;;;;;2.53;0.95;;;;;;;-142.75;100.00;75979.78;5029543;28;20025;-62
2023/08/31 01:26:25;;;;;;;4.32;1.45;;;;;;;-142.75;100.00;75983.72;5029016;28;20029;-62
2023/08/31 01:28:52;;;;;;;2.63;0.93;;;;;;;-142.75;100.00;75987.66;5029441;28;20548;-62
2023/08/31 01:31:18;;;;;;;4.10;0.80;;;;;;;-142.75;100.00;75997.50;5029446;28;20020;-62
2023/08/31 01:33:43;;;;;;;3.03;1.10;;;;;;;-142.75;100.00;75995.53;5033539;28;20087;-62
2023/08/31 01:36:16;;;;;;;3.03;0.80;;;;;;;-142.75;100.00;76007.34;5032292;28;20009;-62
2023/08/31 01:38:45;;;;;;;3.13;0.80;;;;;;;-142.75;100.00;76011.28;5028387;28;20017;-62
2023/08/31 01:41:14;;;;;;;2.47;0.95;;;;;;;-142.75;100.00;76023.09;5029061;28;20025;-62
2023/08/31 01:43:41;;;;;;;1.10;0.50;;;;;;;-142.75;100.00;76011.28;5027806;28;20029;-62
2023/08/31 01:46:07;;;;;;;1.83;0.80;;;;;;;-142.75;100.00;76011.28;5028638;28;20048;-62
2023/08/31 01:48:39;;;;;;;2.00;0.80;;;;;;;-142.75;100.00;75999.47;5027897;28;20056;-63
2023/08/31 01:51:05;;;;;;;2.45;0.95;;;;;;;-142.75;100.00;75999.47;5028095;28;20032;-62
2023/08/31 01:53:30;;;;;;;5.05;0.98;;;;;;;-142.75;100.00;75993.56;5027871;28;20423;-61
2023/08/31 01:55:56;;;;;;;3.05;0.70;;;;;;;-142.75;100.00;75983.72;5028758;28;20014;-62
2023/08/31 01:58:22;;;;;;;3.38;0.77;;;;;;;-142.75;100.00;75966.00;5028811;28;20037;-62
2023/08/31 02:00:48;;;;;;;6.10;0.90;;;;;;;-142.75;100.00;75964.03;5028767;28;20436;-62
2023/08/31 02:03:13;;;;;;;1.80;0.80;;;;;;;-142.75;100.00;75966.00;5028725;28;20053;-62
2023/08/31 02:05:38;;;;;;;4.38;0.55;;;;;;;-142.75;100.00;75964.03;5028309;28;20060;-62
2023/08/31 02:08:04;;;;;;;4.70;0.90;;;;;;;-142.75;100.00;75981.75;5028941;28;20100;-62
2023/08/31 02:10:29;;;;;;;2.47;0.80;;;;;;;-142.75;100.00;76011.28;5028621;28;20414;-62
2023/08/31 02:12:55;;;;;;;2.35;0.93;;;;;;;-142.75;100.00;76017.19;5028409;28;20568;-62
2023/08/31 02:15:20;;;;;;;3.83;1.20;;;;;;;-142.75;100.00;75999.47;5028291;28;20026;-62
2023/08/31 02:17:45;;;;;;;2.08;1.00;;;;;;;-142.75;100.00;76013.25;5028430;28;20045;-62
2023/08/31 02:20:11;;;;;;;3.72;0.90;;;;;;;-142.75;100.00;76017.19;5028562;28;20590;-62
2023/08/31 02:22:37;;;;;;;3.15;1.30;;;;;;;-142.75;100.00;76011.28;5028501;28;20576;-62
2023/08/31 02:25:02;;;;;;;4.30;1.42;;;;;;;-142.75;100.00;75999.47;5029462;28;20037;-62
2023/08/31 02:27:28;;;;;;;6.18;1.20;;;;;;;-142.75;100.00;75987.66;5028232;28;20024;-63
2023/08/31 02:29:53;;;;;;;5.00;1.30;;;;;;;-142.75;100.00;75999.47;5028358;28;20022;-63
2023/08/31 02:32:19;;;;;;;2.05;1.05;;;;;;;-142.75;100.00;76003.41;5028057;28;20105;-62
2023/08/31 02:34:44;;;;;;;1.60;0.85;;;;;;;-142.75;100.00;76025.06;5028305;28;20025;-63
2023/08/31 02:37:10;;;;;;;3.15;1.02;;;;;;;-142.75;100.00;76015.22;5028019;28;20021;-62
2023/08/31 02:39:35;;;;;;;4.18;0.95;;;;;;;-142.75;100.00;76011.28;5027830;28;20021;-63
2023/08/31 02:42:01;;;;;;;4.40;1.25;;;;;;;-142.75;100.00;76023.09;5028168;28;20063;-63
2023/08/31 02:44:26;;;;;;;2.78;1.13;;;;;;;-142.75;100.00;76019.16;5027952;28;20052;-63
2023/08/31 02:46:51;;;;;;;4.97;1.65;;;;;;;-142.75;100.00;76029.00;5027682;28;20293;-63
2023/08/31 02:49:17;;;;;;;5.85;1.60;;;;;;;-142.75;100.00;76015.22;5027748;28;20021;-63
2023/08/31 02:51:42;;;;;;;3.25;1.38;;;;;;;-142.75;100.00;76015.22;5027932;28;20021;-63
2023/08/31 02:54:07;;;;;;;3.30;1.60;;;;;;;-142.75;100.00;76011.28;5027692;28;20021;-62
2023/08/31 02:56:33;;;;;;;6.65;1.90;;;;;;;-142.75;100.00;76001.44;5027633;28;20108;-63
2023/08/31 02:58:58;;;;;;;4.53;1.60;;;;;;;-142.75;100.00;76005.38;5027599;28;20472;-63
2023/08/31 03:01:24;;;;;;;4.45;1.90;;;;;;;-142.75;100.00;76007.34;5026944;28;20671;-63
2023/08/31 03:03:49;;;;;;;3.72;1.52;;;;;;;-142.75;100.00;75997.50;5034377;28;20405;-63
2023/08/31 03:06:15;;;;;;;4.03;1.60;;;;;;;-142.75;100.00;75999.47;5033993;28;20499;-62
2023/08/31 03:08:41;;;;;;;3.65;1.73;;;;;;;-142.75;100.00;76005.38;5027482;28;20465;-61
2023/08/31 03:11:06;;;;;;;6.53;1.80;;;;;;;-142.75;100.00;76015.22;5027510;28;20697;-63
2023/08/31 03:13:32;;;;;;;3.28;1.63;;;;;;;-142.75;100.00;75991.59;5027670;28;20496;-62
2023/08/31 03:15:59;;;;;;;5.20;1.65;;;;;;;-142.75;100.00;75991.59;5026882;28;20094;-62
2023/08/31 03:18:25;;;;;;;5.43;2.03;;;;;;;-142.75;100.00;76009.31;5027342;28;20041;-63
2023/08/31 03:20:50;;;;;;;6.13;1.80;;;;;;;-142.75;100.00;76005.38;5027224;28;20017;-62
2023/08/31 03:23:16;;;;;;;5.07;1.85;;;;;;;-142.75;100.00;76003.41;5027435;28;20021;-63
2023/08/31 03:25:41;;;;;;;9.05;2.00;;;;;;;-142.75;100.00;75987.66;5026757;28;20017;-63
2023/08/31 03:28:07;;;;;;;4.93;2.40;;;;;;;-142.75;100.00;75993.56;5027319;28;20500;-62
2023/08/31 03:30:32;;;;;;;7.50;1.85;;;;;;;-142.75;100.00;75993.56;5027025;28;20358;-62
2023/08/31 03:32:57;;;;;;;7.50;1.85;;;;;;;-142.75;100.00;76003.41;5027160;28;20630;-62
2023/08/31 03:35:26;;;;;;;4.85;1.75;;;;;;;-142.75;100.00;76011.28;5026985;28;20162;-63
2023/08/31 03:37:53;;;;;;;5.57;1.50;;;;;;;-142.75;100.00;76013.25;5027168;28;20071;-63
2023/08/31 03:40:18;;;;;;;3.78;1.30;;;;;;;-142.75;100.00;76007.34;5026887;28;20021;-63
2023/08/31 03:42:44;;;;;;;5.15;1.70;;;;;;;-142.75;100.00;76003.41;5027181;28;20032;-63
2023/08/31 03:45:10;;;;;;;4.03;1.80;;;;;;;-142.75;100.00;76015.22;5026631;28;20021;-63
2023/08/31 03:47:35;;;;;;;3.72;1.77;;;;;;;-142.75;100.00;76032.94;5026522;28;20051;-62
2023/08/31 03:50:00;;;;;;;3.97;1.40;;;;;;;-142.75;100.00;76038.84;5026953;28;20093;-63
2023/08/31 03:52:25;;;;;;;4.00;1.60;;;;;;;-142.75;100.00;76036.88;5031900;28;20049;-63
2023/08/31 03:54:52;;;;;;;3.42;1.38;;;;;;;-142.75;100.00;76046.72;5026611;28;20033;-62
2023/08/31 03:57:18;;;;;;;3.50;1.58;;;;;;;-142.75;100.00;76046.72;5026383;28;20017;-63
2023/08/31 03:59:43;;;;;;;3.72;1.48;;;;;;;-142.75;100.00;76062.47;5026469;28;20036;-63
2023/08/31 04:02:08;;;;;;;3.13;1.52;;;;;;;-142.75;100.00;76070.34;5026659;28;20567;-63
2023/08/31 04:04:34;;;;;;;4.00;1.30;;;;;;;-142.75;100.00;76078.19;5026687;28;20488;-63
2023/08/31 04:07:00;;;;;;;5.47;1.73;;;;;;;-142.75;100.00;76076.22;5026202;28;20435;-63
2023/08/31 04:09:25;;;;;;;4.50;1.30;;;;;;;-142.75;100.00;76082.13;5026334;28;20116;-63
2023/08/31 04:11:51;;;;;;;4.38;1.20;;;;;;;-142.75;100.00;76093.94;5026535;28;20025;-63
2023/08/31 04:14:18;;;;;;;3.33;1.15;;;;;;;-142.75;100.00;76101.81;5026365;28;20021;-62
2023/08/31 04:16:44;;;;;;;2.75;1.20;;;;;;;-142.75;100.00;76105.75;5029296;28;20020;-63
2023/08/31 04:19:09;;;;;;;3.33;1.23;;;;;;;-142.75;100.00;76113.63;5031823;28;20022;-63
2023/08/31 04:21:35;;;;;;;4.70;1.05;;;;;;;-142.75;100.00;76121.50;5026291;28;20022;-63
2023/08/31 04:24:01;;;;;;;4.30;1.08;;;;;;;-142.75;100.00;76125.44;5026604;28;20053;-63
2023/08/31 04:26:27;;;;;;;2.47;1.05;;;;;;;-142.75;100.00;76121.50;5025827;28;20041;-63
2023/08/31 04:28:53;;;;;;;3.83;1.20;;;;;;;-142.75;100.00;76129.38;5032328;28;20658;-63
2023/08/31 04:31:18;;;;;;;3.38;1.10;;;;;;;-142.75;100.00;76135.28;5026483;28;20108;-63
2023/08/31 04:33:43;;;;;;;5.95;1.20;;;;;;;-142.75;100.00;76149.06;5023832;28;20017;-63
2023/08/31 04:36:08;;;;;;;2.95;1.02;;;;;;;-142.75;100.00;76162.84;5025236;28;20094;-63
2023/08/31 04:38:34;;;;;;;4.30;1.00;;;;;;;-142.75;100.00;76160.88;5024823;28;20029;-63
2023/08/31 04:41:01;;;;;;;4.53;1.10;;;;;;;-142.75;100.00;76166.78;5026322;28;20022;-63
2023/08/31 04:43:26;;;;;;;1.40;0.60;;;;;;;-142.75;100.00;76168.75;5025958;28;20035;-63
2023/08/31 04:45:53;;;;;;;4.45;0.98;;;;;;;-142.75;100.00;76180.56;5025470;28;20029;-63
2023/08/31 04:48:18;;;;;;;2.58;0.82;;;;;;;-142.75;100.00;76180.56;5026116;28;20037;-64
2023/08/31 04:50:43;;;;;;;1.90;0.60;;;;;;;-142.75;100.00;76166.78;5026253;28;20033;-63
2023/08/31 04:53:09;;;;;;;4.28;0.98;;;;;;;-142.75;100.00;76172.69;5026093;28;20030;-64
2023/08/31 04:55:34;;;;;;;3.55;1.00;;;;;;;-142.75;100.00;76172.69;5026022;28;20056;-64
2023/08/31 04:57:59;;;;;;;2.97;1.20;;;;;;;-142.75;100.00;76176.63;5026027;28;20017;-64
2023/08/31 05:00:25;;;;;;;2.13;0.80;;;;;;;-142.75;100.00;76178.59;5026170;28;20473;-64
2023/08/31 05:02:50;;;;;;;3.63;1.10;;;;;;;-142.75;100.00;76188.44;5025919;28;20420;-64
2023/08/31 05:05:18;;;;;;;4.43;1.23;;;;;;;-142.75;100.00;76176.63;5020448;28;20100;-64
2023/08/31 05:07:43;;;;;;;2.42;0.80;;;;;;;-142.75;100.00;76184.50;5022498;28;20033;-64
2023/08/31 05:10:09;;;;;;;5.07;1.05;;;;;;;-142.75;100.00;76212.03;5024372;28;20693;-64
2023/08/31 05:12:34;;;;;;;4.28;0.70;;;;;;;-142.75;100.00;76204.16;5025221;28;20724;-64
2023/08/31 05:14:59;;;;;;;4.10;1.00;;;;;;;-142.75;100.00;76204.16;5025226;28;20055;-64
2023/08/31 05:17:25;;;;;;;2.25;0.98;;;;;;;-142.75;100.00;76223.84;5025038;28;20101;-64
2023/08/31 05:19:50;;;;;;;3.72;0.90;;;;;;;-142.75;100.00;76233.69;5025186;28;20378;-64
2023/08/31 05:22:16;;;;;;;3.70;1.00;;;;;;;-142.75;100.00;76227.78;5025139;28;20076;-64
2023/08/31 05:24:41;;;;;;;2.85;1.13;;;;;;;-142.75;100.00;76219.91;5024989;28;20031;-64
2023/08/31 05:27:06;;;;;;;4.78;1.08;;;;;;;-142.75;100.00;76219.91;5021217;28;20021;-64
2023/08/31 05:29:32;;;;;;;2.22;0.80;;;;;;;-142.75;100.00;76214.00;5022736;28;20017;-64
2023/08/31 05:31:57;;;;;;;2.05;1.00;;;;;;;-142.75;100.00;76208.09;5028490;28;20036;-64
2023/08/31 05:34:25;;;;;;;1.60;0.90;;;;;;;-142.75;100.00;76202.19;5028633;28;20040;-64
2023/08/31 05:36:50;;;;;;;5.28;1.60;;;;;;;-142.75;100.00;76206.13;5027795;28;20025;-64
2023/08/31 05:39:16;;;;;;;2.08;0.93;;;;;;;-142.75;100.00;76214.00;5029184;28;20044;-64
2023/08/31 05:41:42;;;;;;;2.88;0.95;;;;;;;-142.75;100.00;76208.09;5027178;28;20017;-63
2023/08/31 05:44:08;;;;;;;3.13;1.10;;;;;;;-142.75;100.00;76219.91;5028463;28;20624;-64
2023/08/31 05:46:33;;;;;;;4.47;1.00;;;;;;;-142.75;100.00;76215.97;5028265;28;20051;-65
2023/08/31 05:49:00;;;;;;;4.05;1.10;;;;;;;-142.75;100.00;76215.97;5028988;28;20060;-64
2023/08/31 05:51:25;;;;;;;3.47;1.10;;;;;;;-142.75;100.00;76231.72;5028565;28;20136;-64
2023/08/31 05:53:51;;;;;;;5.30;1.25;;;;;;;-142.75;100.00;76221.88;5028264;28;20108;-64
2023/08/31 05:56:16;;;;;;;5.93;1.30;;;;;;;-142.75;100.00;76217.94;5027773;28;20027;-64
2023/08/31 05:58:42;;;;;;;8.45;1.50;;;;;;;-142.75;100.00;76204.16;5028129;28;20124;-64
2023/08/31 06:01:07;;;;;;;3.97;1.02;;;;;;;-142.75;100.00;76217.94;5028438;28;20042;-64
2023/08/31 06:03:32;;;;;;;4.20;0.95;;;;;;;-142.75;100.00;76192.38;5028665;28;20017;-64
2023/08/31 06:05:59;;;;;;;4.00;1.05;;;;;;;-142.75;100.00;76176.63;5027783;28;20040;-64
2023/08/31 06:08:25;;;;;;;3.30;0.90;;;;;;;-142.75;100.00;76160.88;5028165;28;20315;-64
2023/08/31 06:10:50;;;;;;;5.60;1.08;;;;;;;-142.75;100.00;76133.31;5026866;28;20469;-64
2023/08/31 06:13:16;;;;;;;5.20;1.00;;;;;;;-142.75;100.00;76131.34;5029319;28;20468;-63
2023/08/31 06:15:41;;;;;;;2.67;0.82;;;;;;;-142.75;100.00;76119.53;5029105;28;20457;-63
2023/08/31 06:18:07;;;;;;;1.70;0.88;;;;;;;-142.75;100.00;76095.91;5027980;28;20030;-63
2023/08/31 06:20:32;;;;;;;2.50;0.95;;;;;;;-142.75;100.00;76078.19;5028124;28;20033;-63
2023/08/31 06:22:59;;;;;;;3.03;1.00;;;;;;;-142.75;100.00;76056.56;5027896;28;20231;-63
2023/08/31 06:25:24;;;;;;;3.30;1.05;;;;;;;-142.75;100.00;76060.50;5021141;28;20108;-63
2023/08/31 06:27:50;;;;;;;4.93;0.80;;;;;;;-142.75;100.00;76044.75;5024522;28;20112;-63
2023/08/31 06:30:16;;;;;;;2.80;1.00;;;;;;;-142.75;100.00;76036.88;5025037;28;20616;-63
2023/08/31 06:32:46;;;;;;;2.10;0.95;;;;;;;-142.75;100.00;76027.03;5024438;28;20074;-63
2023/08/31 06:35:12;;;;;;;6.68;1.23;;;;;;;-142.75;100.00;76015.22;5024713;28;20064;-63
2023/08/31 06:37:38;;;;;;;3.38;1.17;;;;;;;-142.75;100.00;76007.34;5024058;28;20080;-63
2023/08/31 06:40:08;;;;;;;6.25;1.65;;;;;;;-142.75;100.00;75981.75;5026336;28;20028;-63
2023/08/31 06:42:34;;;;;;;6.07;1.33;;;;;;;-142.75;100.00;75975.84;5029501;28;20028;-63
2023/08/31 06:45:00;;;;;;;7.07;1.40;;;;;;;-142.75;100.00;75956.19;5026238;28;20025;-63
2023/08/31 06:47:25;;;;;;;4.10;1.20;;;;;;;-142.75;100.00;75948.31;5022083;28;20710;-63
2023/08/31 06:49:50;;;;;;;4.82;1.40;;;;;;;-142.75;100.00;75932.56;5022284;28;20031;-63
2023/08/31 06:52:16;;;;;;;3.47;1.08;;;;;;;-142.75;100.00;75920.75;5025627;28;20021;-63
2023/08/31 06:54:42;;;;;;;3.05;1.23;;;;;;;-142.75;100.00;75920.75;5025813;28;20025;-63
2023/08/31 06:57:07;;;;;;;5.47;1.25;;;;;;;-142.75;100.00;75901.06;5026565;28;20019;-63
2023/08/31 06:59:33;;;;;;;4.43;1.45;;;;;;;-142.75;100.00;75899.09;5026936;28;20032;-63
2023/08/31 07:01:58;;;;;;;6.80;1.45;;;;;;;-142.75;100.00;75912.88;5026789;28;20661;-63
2023/08/31 07:04:23;;;;;;;6.00;1.25;;;;;;;-142.75;100.00;75865.63;5026965;28;20611;-63
2023/08/31 07:06:49;;;;;;;6.28;1.27;;;;;;;-142.75;100.00;75881.38;5026374;28;20523;-63
2023/08/31 07:09:14;;;;;;;4.20;0.70;;;;;;;-142.75;100.00;75875.47;5026888;28;20510;-63
2023/08/31 07:11:40;;;;;;;6.47;1.48;;;;;;;-142.75;100.00;75861.69;5025128;28;20025;-64
2023/08/31 07:14:05;;;;;;;2.33;0.85;;;;;;;-142.75;100.00;75881.38;5026759;28;20066;-62
2023/08/31 07:16:30;;;;;;;5.70;0.95;;;;;;;-142.75;100.00;75855.81;5024620;28;20021;-62
2023/08/31 07:18:56;;;;;;;3.28;0.95;;;;;;;-142.75;100.00;75840.06;5025107;28;20425;-62
2023/08/31 07:21:22;;;;;;;4.35;0.82;;;;;;;-142.75;100.00;75838.09;5024338;28;20030;-62
2023/08/31 07:23:48;;;;;;;4.32;1.00;;;;;;;-142.75;100.00;75814.47;5022344;28;20102;-63
2023/08/31 07:26:13;;;;;;;3.10;0.80;;;;;;;-142.75;100.00;75830.22;5024828;28;20517;-62
2023/08/31 07:28:38;;;;;;;3.38;1.02;;;;;;;-142.75;100.00;75826.28;5025450;28;20032;-62
2023/08/31 07:31:06;;;;;;;2.67;0.95;;;;;;;-142.75;100.00;75822.34;5025414;28;20025;-61
2023/08/31 07:33:32;;;;;;;2.80;0.80;;;;;;;-142.75;100.00;75786.91;5008881;28;20029;-63
2023/08/31 07:35:58;;;;;;;2.42;1.00;;;;;;;-142.75;100.00;75781.00;5025539;28;20017;-63
2023/08/31 07:38:24;;;;;;;2.97;0.98;;;;;;;-142.75;100.00;75786.91;5025637;28;20040;-63
2023/08/31 07:40:49;;;;;;;2.25;0.98;;;;;;;-142.75;100.00;75759.38;5023214;28;20025;-63
2023/08/31 07:43:14;;;;;;;2.40;0.80;;;;;;;-142.75;100.00;75751.50;5026284;28;20437;-63
2023/08/31 07:45:40;;;;;;;5.55;1.35;;;;;;;-142.75;100.00;75716.06;5022508;28;20026;-63
2023/08/31 07:48:06;;;;;;;3.20;1.20;;;;;;;-142.75;100.00;75745.59;5024462;28;20045;-63
2023/08/31 07:50:32;;;;;;;3.33;1.05;;;;;;;-142.75;100.00;75741.66;5025769;28;20021;-63
2023/08/31 07:52:57;;;;;;;2.95;0.77;;;;;;;-142.75;100.00;75729.84;5025359;28;20025;-64
2023/08/31 07:55:22;;;;;;;2.05;0.98;;;;;;;-142.75;100.00;75696.38;5025517;28;20049;-62
2023/08/31 07:57:48;;;;;;;5.97;1.35;;;;;;;-142.75;100.00;75690.47;5025541;28;20099;-63
2023/08/31 08:00:14;;;;;;;5.15;1.20;;;;;;;-142.75;100.00;75690.47;5026936;28;20060;-63
2023/08/31 08:02:40;;;;;;;4.70;1.00;;;;;;;-142.75;100.00;75672.78;5025780;28;20033;-63
2023/08/31 08:05:06;;;;;;;3.97;1.38;;;;;;;-142.75;100.00;75680.63;5025227;28;20025;-64
2023/08/31 08:07:31;;;;;;;3.22;0.90;;;;;;;-142.75;100.00;75723.94;5025837;28;20079;-63
2023/08/31 08:09:57;;;;;;;5.05;0.75;;;;;;;-142.75;100.00;75771.16;5026006;28;20619;-63
2023/08/31 08:12:23;;;;;;;3.47;1.30;;;;;;;-142.75;100.00;75769.19;5027912;28;20079;-63
2023/08/31 08:14:48;;;;;;;2.05;0.82;;;;;;;-142.75;100.00;75786.91;5025579;28;20025;-63
2023/08/31 08:17:14;;;;;;;2.35;0.60;;;;;;;-142.75;100.00;75798.72;5025280;28;20029;-63
2023/08/31 08:19:39;;;;;;;2.92;0.80;;;;;;;-142.75;100.00;75822.34;5025675;28;20021;-63
2023/08/31 08:22:04;;;;;;;3.00;0.80;;;;;;;-142.75;100.00;75828.25;5025099;28;20043;-64
2023/08/31 08:24:30;;;;;;;6.15;1.05;;;;;;;-142.75;100.00;75845.97;5025601;28;20023;-63
2023/08/31 08:26:55;;;;;;;4.65;0.85;;;;;;;-142.75;100.00;75881.38;5025946;28;20033;-63
2023/08/31 08:29:20;;;;;;;2.75;0.63;;;;;;;-142.75;100.00;75906.97;5025003;28;20084;-63
2023/08/31 08:31:46;;;;;;;4.50;1.10;;;;;;;-142.75;100.00;75891.22;5024068;28;20399;-63
2023/08/31 08:34:11;;;;;;;22.27;2.80;;;;;;;-142.75;100.00;75877.44;5025562;28;20070;-63
2023/08/31 08:36:36;;;;;;;12.68;1.55;;;;;;;-142.75;100.00;75889.25;5025269;28;20086;-63
2023/08/31 08:39:03;;;;;;;12.70;1.85;;;;;;;-142.75;100.00;75881.38;5025653;28;20489;-63
2023/08/31 08:41:29;;;;;;;22.65;1.98;;;;;;;-142.75;100.00;75869.56;5025362;28;20052;-64
2023/08/31 08:44:01;;;;;;;12.93;2.67;;;;;;;-142.75;100.00;75836.13;5025231;28;20726;-63
2023/08/31 08:46:27;;;;;;;13.73;1.40;;;;;;;-142.75;100.00;75804.63;5025022;28;20370;-63
2023/08/31 08:48:54;;;;;;;7.10;0.80;;;;;;;-142.75;100.00;75769.19;5025796;28;20021;-64
2023/08/31 08:51:21;;;;;;;14.18;1.85;;;;;;;-142.75;100.00;75782.97;5026116;28;20033;-64
2023/08/31 08:53:49;;;;;;;11.00;1.20;;;;;;;-142.75;100.00;75765.25;5025162;28;20120;-64
2023/08/31 08:56:14;;;;;;;5.80;0.80;;;;;;;-142.75;100.00;75757.41;5024287;28;20064;-63
2023/08/31 08:58:39;;;;;;;1.75;0.43;;;;;;;-142.75;100.00;75798.72;5024284;28;20072;-64
2023/08/31 09:01:07;;;;;;;2.83;0.77;;;;;;;-142.75;100.00;75794.78;5025452;28;20022;-64
2023/08/31 09:03:32;;;;;;;3.25;0.70;;;;;;;-142.75;100.00;75802.66;5025890;28;20044;-65
2023/08/31 09:06:01;;;;;;;1.50;0.50;;;;;;;-142.75;100.00;75818.41;5026339;28;20269;-65
2023/08/31 09:08:27;;;;;;;4.18;0.60;;;;;;;-142.75;100.00;75808.56;5029057;28;20032;-65
2023/08/31 09:10:56;;;;;;;4.15;0.70;;;;;;;-142.75;100.00;75820.38;5028222;28;20041;-64
2023/08/31 09:13:26;;;;;;;2.45;0.82;;;;;;;-142.75;100.00;75845.97;5028470;28;20021;-64
2023/08/31 09:15:52;;;;;;;2.60;0.60;;;;;;;-142.75;100.00;75782.97;5028323;28;20025;-64
2023/08/31 09:18:44;;;;;;;4.63;0.57;;;;;;;-142.75;100.00;75747.56;5029486;28;20037;-64
2023/08/31 09:21:11;;;;;;;3.75;0.50;;;;;;;-142.75;100.00;75723.94;5027402;28;21353;-64
2023/08/31 09:23:36;;;;;;;6.30;1.17;;;;;;;-142.75;100.00;75712.13;5029602;28;20393;-64
2023/08/31 09:26:02;;;;;;;3.22;0.95;;;;;;;-142.75;100.00;75674.72;5028433;28;20034;-64
2023/08/31 09:28:29;;;;;;;11.80;1.50;;;;;;;-142.75;100.00;75637.34;5028726;28;20687;-64
2023/08/31 09:31:06;;;;;;;13.95;1.90;;;;;;;-142.75;100.00;75597.97;5028478;28;20432;-64
2023/08/31 09:33:31;;;;;;;8.85;1.42;;;;;;;-142.75;97.17;75574.38;5028803;28;20044;-65
2023/08/31 09:35:59;;;;;;;8.75;0.73;;;;;;;-142.75;97.33;75584.22;5028464;28;20436;-65
2023/08/31 09:38:25;;;;;;;1.45;0.52;;;;;;;-142.75;97.62;75576.34;5028692;28;20444;-64
2023/08/31 09:40:50;;;;;;;11.00;0.80;;;;;;;-142.75;93.75;75590.13;5028508;28;20029;-64
2023/08/31 09:43:23;;;;;;;3.10;0.82;;;;;;;-142.75;95.49;75582.25;5028554;28;20168;-64
2023/08/31 09:45:49;;;;;;;5.05;0.82;;;;;;;-142.75;92.87;75639.31;5028128;28;20044;-64
2023/08/31 09:48:15;;;;;;;1.80;0.47;;;;;;;-142.75;96.29;75647.19;5028322;28;20027;-64
2023/08/31 09:50:43;;;;;;;1.67;0.60;;;;;;;-142.75;91.79;75688.50;5028339;28;20399;-64
2023/08/31 09:53:10;;;;;;;2.45;0.65;;;;;;;-142.75;94.31;75700.31;5028756;28;20037;-64
2023/08/31 09:55:38;;;;;;;2.58;0.70;;;;;;;-142.75;96.81;75674.72;5028886;28;20030;-65
2023/08/31 09:58:06;;;;;;;5.30;1.10;;;;;;;-142.75;96.55;75653.09;5028876;28;20024;-64
2023/08/31 10:00:34;;;;;;;4.05;0.75;;;;;;;-142.75;95.65;75645.22;5028167;28;20044;-64
2023/08/31 10:03:03;;;;;;;3.75;1.08;;;;;;;-142.75;92.80;75641.28;5028133;28;20091;-64
2023/08/31 10:05:28;;;;;;;1.70;0.43;;;;;;;-142.75;92.56;75621.59;5026631;28;20029;-64
2023/08/31 10:07:54;;;;;;;2.85;0.50;;;;;;;-142.75;93.36;75613.72;5028076;28;20253;-65
2023/08/31 10:10:24;;;;;;;1.73;0.60;;;;;;;-142.75;94.10;75655.06;5027912;28;20021;-65
2023/08/31 10:12:51;;;;;;;2.28;0.70;;;;;;;-142.75;91.82;75704.25;5028160;28;20040;-64
2023/08/31 10:15:17;;;;;;;2.33;0.70;;;;;;;-142.75;93.25;75708.19;5027496;28;20032;-64
2023/08/31 10:17:44;;;;;;;2.88;0.60;;;;;;;-142.75;93.31;75700.31;5027938;28;20017;-64
2023/08/31 10:20:11;;;;;;;2.65;0.70;;;;;;;-142.75;94.53;75718.03;5027578;28;20493;-64
2023/08/31 10:22:37;;;;;;;2.40;0.75;;;;;;;-142.75;95.17;75733.78;5028389;28;20033;-65
2023/08/31 10:25:05;;;;;;;3.25;0.68;;;;;;;-142.75;93.43;75682.59;5027500;28;20094;-65
2023/08/31 10:27:39;;;;;;;2.38;0.70;;;;;;;-142.75;90.53;75660.97;5027704;28;20528;-65
2023/08/31 10:30:40;;;;;;;2.45;0.65;;;;;;;-142.75;90.22;75607.81;5028059;28;20033;-65
2023/08/31 10:33:08;;;;;;;3.90;0.80;;;;;;;-142.75;88.66;75607.81;5004338;28;20056;-66
2023/08/31 10:35:49;;;;;;;3.47;0.70;;;;;;;-142.75;88.93;75560.59;5022876;28;20045;-64
2023/08/31 10:38:15;;;;;;;3.28;0.70;;;;;;;-142.75;85.23;75570.44;5026518;28;20126;-65
2023/08/31 10:40:40;;;;;;;2.47;0.60;;;;;;;-142.75;86.56;75588.16;5027562;28;20096;-64
2023/08/31 10:43:16;;;;;;;1.90;0.65;;;;;;;-142.75;86.37;75601.91;5027217;28;20508;-64
2023/08/31 10:45:44;;;;;;;2.35;0.73;;;;;;;-142.75;88.63;75578.31;5026731;28;20417;-64
2023/08/31 10:48:10;;;;;;;2.83;0.80;;;;;;;-142.75;87.64;75572.41;5026890;28;20041;-64
2023/08/31 10:50:41;;;;;;;2.88;0.70;;;;;;;-142.75;85.87;75544.84;5026780;28;20026;-65
2023/08/31 10:53:11;;;;;;;3.58;0.80;;;;;;;-142.75;87.30;75519.25;5027033;28;20021;-64
2023/08/31 10:55:52;;;;;;;4.40;0.80;;;;;;;-142.75;84.57;75538.94;5026319;28;20018;-64
2023/08/31 10:58:18;;;;;;;2.22;0.60;;;;;;;-142.75;83.90;75586.19;5027043;28;20029;-64
2023/08/31 11:00:53;;;;;;;2.45;0.65;;;;;;;-142.75;85.99;75576.34;5027722;28;20032;-64
2023/08/31 11:03:18;;;;;;;1.63;0.52;;;;;;;-142.75;86.59;75582.25;5027363;28;20075;-64
2023/08/31 11:05:53;;;;;;;2.25;0.80;;;;;;;-142.75;86.23;75607.81;5026407;28;20034;-61
2023/08/31 11:08:23;;;;;;;3.00;0.60;;;;;;;-142.75;87.61;75572.41;5025468;28;20226;-61